sensor_id;sensor_type;location;lat;lon;timestamp;temperature;humidity
9209;DHT22;4639;48.862;9.188;2022-09-09T00:04:27;16.90;99.90
9209;DHT22;4639;48.862;9.188;2022-09-09T00:07:16;16.90;99.90
9209;DHT22;4639;48.862;9.188;2022-09-09T00:09:47;16.90;99.90
9209;DHT22;4639;48.862;9.188;2022-09-09T00:12:43;16.90;99.90
9209;DHT22;4639;48.862;9.188;2022-09-09T00:15:21;16.90;99.90
9209;DHT22;4639;48.862;9.188;2022-09-09T00:17:56;16.90;99.90
9209;DHT22;4639;48.862;9.188;2022-09-09T00:23:27;16.90;99.90
9209;DHT22;4639;48.862;9.188;2022-09-09T00:25:59;16.90;99.90
9209;DHT22;4639;48.862;9.188;2022-09-09T00:28:28;16.90;99.90
9209;DHT22;4639;48.862;9.188;2022-09-09T00:31:04;17.00;99.90
9209;DHT22;4639;48.862;9.188;2022-09-09T00:33:34;17.00;99.90
9209;DHT22;4639;48.862;9.188;2022-09-09T00:36:01;17.00;99.90
9209;DHT22;4639;48.862;9.188;2022-09-09T00:38:31;17.00;99.90
9209;DHT22;4639;48.862;9.188;2022-09-09T00:43:35;17.00;99.90
9209;DHT22;4639;48.862;9.188;2022-09-09T00:46:26;17.00;99.90
9209;DHT22;4639;48.862;9.188;2022-09-09T00:57:30;17.00;99.90
9209;DHT22;4639;48.862;9.188;2022-09-09T01:00:19;17.10;99.90
9209;DHT22;4639;48.862;9.188;2022-09-09T01:05:55;17.00;99.90
9209;DHT22;4639;48.862;9.188;2022-09-09T01:11:02;17.10;99.90
9209;DHT22;4639;48.862;9.188;2022-09-09T01:13:30;17.20;99.90
9209;DHT22;4639;48.862;9.188;2022-09-09T01:16:01;17.20;99.90
9209;DHT22;4639;48.862;9.188;2022-09-09T01:18:40;17.20;99.90
9209;DHT22;4639;48.862;9.188;2022-09-09T01:26:40;17.30;99.90
9209;DHT22;4639;48.862;9.188;2022-09-09T01:29:09;17.30;99.90
9209;DHT22;4639;48.862;9.188;2022-09-09T01:31:42;17.30;99.90
9209;DHT22;4639;48.862;9.188;2022-09-09T01:34:16;17.30;99.90
9209;DHT22;4639;48.862;9.188;2022-09-09T01:36:58;17.30;99.90
9209;DHT22;4639;48.862;9.188;2022-09-09T01:39:25;17.30;99.90
9209;DHT22;4639;48.862;9.188;2022-09-09T01:41:51;17.30;99.90
9209;DHT22;4639;48.862;9.188;2022-09-09T01:44:17;17.30;99.90
9209;DHT22;4639;48.862;9.188;2022-09-09T01:46:43;17.30;99.90
9209;DHT22;4639;48.862;9.188;2022-09-09T01:49:09;17.20;99.90
9209;DHT22;4639;48.862;9.188;2022-09-09T01:51:36;17.20;99.90
9209;DHT22;4639;48.862;9.188;2022-09-09T01:54:04;17.10;99.90
9209;DHT22;4639;48.862;9.188;2022-09-09T01:56:41;17.10;99.90
9209;DHT22;4639;48.862;9.188;2022-09-09T01:59:22;17.10;99.90
9209;DHT22;4639;48.862;9.188;2022-09-09T02:02:09;17.20;99.90
9209;DHT22;4639;48.862;9.188;2022-09-09T02:07:14;17.30;99.90
9209;DHT22;4639;48.862;9.188;2022-09-09T02:09:44;17.30;99.90
9209;DHT22;4639;48.862;9.188;2022-09-09T02:12:15;17.50;99.90
9209;DHT22;4639;48.862;9.188;2022-09-09T02:14:48;17.20;99.90
9209;DHT22;4639;48.862;9.188;2022-09-09T02:17:20;17.10;99.90
9209;DHT22;4639;48.862;9.188;2022-09-09T02:19:55;17.10;99.90
9209;DHT22;4639;48.862;9.188;2022-09-09T02:22:24;17.00;99.90
9209;DHT22;4639;48.862;9.188;2022-09-09T02:24:50;16.80;99.90
9209;DHT22;4639;48.862;9.188;2022-09-09T02:27:20;16.80;99.90
9209;DHT22;4639;48.862;9.188;2022-09-09T02:29:48;16.70;99.90
9209;DHT22;4639;48.862;9.188;2022-09-09T02:32:17;16.70;99.90
9209;DHT22;4639;48.862;9.188;2022-09-09T02:34:48;16.60;99.90
9209;DHT22;4639;48.862;9.188;2022-09-09T02:37:17;16.60;99.90
9209;DHT22;4639;48.862;9.188;2022-09-09T02:39:44;16.70;99.90
9209;DHT22;4639;48.862;9.188;2022-09-09T02:42:10;16.60;99.90
9209;DHT22;4639;48.862;9.188;2022-09-09T02:44:35;16.70;99.90
9209;DHT22;4639;48.862;9.188;2022-09-09T02:49:47;16.80;99.90
9209;DHT22;4639;48.862;9.188;2022-09-09T02:52:18;16.80;99.90
9209;DHT22;4639;48.862;9.188;2022-09-09T02:54:45;16.80;99.90
9209;DHT22;4639;48.862;9.188;2022-09-09T02:57:21;16.80;99.90
9209;DHT22;4639;48.862;9.188;2022-09-09T02:59:49;16.80;99.90
9209;DHT22;4639;48.862;9.188;2022-09-09T03:02:15;16.90;99.90
9209;DHT22;4639;48.862;9.188;2022-09-09T03:04:41;17.00;99.90
9209;DHT22;4639;48.862;9.188;2022-09-09T03:07:10;17.00;99.90
9209;DHT22;4639;48.862;9.188;2022-09-09T03:09:35;16.90;99.90
9209;DHT22;4639;48.862;9.188;2022-09-09T03:12:01;17.00;99.90
9209;DHT22;4639;48.862;9.188;2022-09-09T03:14:27;16.90;99.90
9209;DHT22;4639;48.862;9.188;2022-09-09T03:16:53;16.90;99.90
9209;DHT22;4639;48.862;9.188;2022-09-09T03:19:20;16.80;99.90
9209;DHT22;4639;48.862;9.188;2022-09-09T03:21:46;16.80;99.90
9209;DHT22;4639;48.862;9.188;2022-09-09T03:24:13;16.80;99.90
9209;DHT22;4639;48.862;9.188;2022-09-09T03:26:40;16.80;99.90
9209;DHT22;4639;48.862;9.188;2022-09-09T03:29:06;16.70;99.90
9209;DHT22;4639;48.862;9.188;2022-09-09T03:31:35;16.50;99.90
9209;DHT22;4639;48.862;9.188;2022-09-09T03:34:01;16.40;99.90
9209;DHT22;4639;48.862;9.188;2022-09-09T03:36:27;16.40;99.90
9209;DHT22;4639;48.862;9.188;2022-09-09T03:38:53;16.40;99.90
9209;DHT22;4639;48.862;9.188;2022-09-09T03:41:23;16.30;99.90
9209;DHT22;4639;48.862;9.188;2022-09-09T03:43:52;16.30;99.90
9209;DHT22;4639;48.862;9.188;2022-09-09T03:46:23;16.20;99.90
9209;DHT22;4639;48.862;9.188;2022-09-09T03:48:48;16.30;99.90
9209;DHT22;4639;48.862;9.188;2022-09-09T03:51:14;16.50;99.90
9209;DHT22;4639;48.862;9.188;2022-09-09T03:53:41;16.20;99.90
9209;DHT22;4639;48.862;9.188;2022-09-09T03:56:07;16.20;99.90
9209;DHT22;4639;48.862;9.188;2022-09-09T03:58:33;16.20;99.90
9209;DHT22;4639;48.862;9.188;2022-09-09T04:01:05;16.20;99.90
9209;DHT22;4639;48.862;9.188;2022-09-09T04:03:31;16.20;99.90
9209;DHT22;4639;48.862;9.188;2022-09-09T04:05:58;16.30;99.90
9209;DHT22;4639;48.862;9.188;2022-09-09T04:08:25;16.30;99.90
9209;DHT22;4639;48.862;9.188;2022-09-09T04:10:53;16.40;99.90
9209;DHT22;4639;48.862;9.188;2022-09-09T04:13:24;16.30;99.90
9209;DHT22;4639;48.862;9.188;2022-09-09T04:15:55;16.30;99.90
9209;DHT22;4639;48.862;9.188;2022-09-09T04:18:21;16.50;99.90
9209;DHT22;4639;48.862;9.188;2022-09-09T04:20:51;16.30;99.90
9209;DHT22;4639;48.862;9.188;2022-09-09T04:23:18;16.30;99.90
9209;DHT22;4639;48.862;9.188;2022-09-09T04:25:48;16.20;99.90
9209;DHT22;4639;48.862;9.188;2022-09-09T04:28:15;16.20;99.90
9209;DHT22;4639;48.862;9.188;2022-09-09T04:30:42;16.20;99.90
9209;DHT22;4639;48.862;9.188;2022-09-09T04:33:08;16.30;99.90
9209;DHT22;4639;48.862;9.188;2022-09-09T04:35:35;16.30;99.90
9209;DHT22;4639;48.862;9.188;2022-09-09T04:38:01;16.30;99.90
9209;DHT22;4639;48.862;9.188;2022-09-09T04:40:28;16.30;99.90
9209;DHT22;4639;48.862;9.188;2022-09-09T04:42:55;16.30;99.90
9209;DHT22;4639;48.862;9.188;2022-09-09T04:45:20;16.30;99.90
9209;DHT22;4639;48.862;9.188;2022-09-09T04:47:46;16.30;99.90
9209;DHT22;4639;48.862;9.188;2022-09-09T04:50:12;16.30;99.90
9209;DHT22;4639;48.862;9.188;2022-09-09T04:52:37;16.30;99.90
9209;DHT22;4639;48.862;9.188;2022-09-09T04:55:03;16.30;99.90
9209;DHT22;4639;48.862;9.188;2022-09-09T04:57:29;16.20;99.90
9209;DHT22;4639;48.862;9.188;2022-09-09T04:59:58;16.30;99.90
9209;DHT22;4639;48.862;9.188;2022-09-09T05:02:23;16.30;99.90
9209;DHT22;4639;48.862;9.188;2022-09-09T05:04:49;16.30;99.90
9209;DHT22;4639;48.862;9.188;2022-09-09T05:07:15;16.20;99.90
9209;DHT22;4639;48.862;9.188;2022-09-09T05:09:40;16.40;99.90
9209;DHT22;4639;48.862;9.188;2022-09-09T05:12:06;16.20;99.90
9209;DHT22;4639;48.862;9.188;2022-09-09T05:14:32;16.30;99.90
9209;DHT22;4639;48.862;9.188;2022-09-09T05:16:58;16.30;99.90
9209;DHT22;4639;48.862;9.188;2022-09-09T05:19:23;16.50;99.90
9209;DHT22;4639;48.862;9.188;2022-09-09T05:21:49;16.30;99.90
9209;DHT22;4639;48.862;9.188;2022-09-09T05:24:15;16.30;99.90
9209;DHT22;4639;48.862;9.188;2022-09-09T05:26:42;16.30;99.90
9209;DHT22;4639;48.862;9.188;2022-09-09T05:29:08;16.40;99.90
9209;DHT22;4639;48.862;9.188;2022-09-09T05:31:34;16.40;99.90
9209;DHT22;4639;48.862;9.188;2022-09-09T05:34:00;16.40;99.90
9209;DHT22;4639;48.862;9.188;2022-09-09T05:36:25;16.50;99.90
9209;DHT22;4639;48.862;9.188;2022-09-09T05:38:51;16.50;99.90
9209;DHT22;4639;48.862;9.188;2022-09-09T05:41:19;16.50;99.90
9209;DHT22;4639;48.862;9.188;2022-09-09T05:43:46;16.60;99.90
9209;DHT22;4639;48.862;9.188;2022-09-09T05:46:18;16.70;99.90
9209;DHT22;4639;48.862;9.188;2022-09-09T05:48:46;16.60;99.90
9209;DHT22;4639;48.862;9.188;2022-09-09T05:51:14;16.70;99.90
9209;DHT22;4639;48.862;9.188;2022-09-09T05:53:44;16.80;99.90
9209;DHT22;4639;48.862;9.188;2022-09-09T05:56:19;16.80;99.90
9209;DHT22;4639;48.862;9.188;2022-09-09T05:58:45;16.80;99.90
9209;DHT22;4639;48.862;9.188;2022-09-09T06:01:25;16.80;99.90
9209;DHT22;4639;48.862;9.188;2022-09-09T06:03:52;16.90;99.90
9209;DHT22;4639;48.862;9.188;2022-09-09T06:06:20;16.90;99.90
9209;DHT22;4639;48.862;9.188;2022-09-09T06:08:54;16.90;99.90
9209;DHT22;4639;48.862;9.188;2022-09-09T06:11:30;16.90;99.90
9209;DHT22;4639;48.862;9.188;2022-09-09T06:13:57;17.00;99.90
9209;DHT22;4639;48.862;9.188;2022-09-09T06:16:24;17.00;99.90
9209;DHT22;4639;48.862;9.188;2022-09-09T06:18:50;17.10;99.90
9209;DHT22;4639;48.862;9.188;2022-09-09T06:21:22;17.10;99.90
9209;DHT22;4639;48.862;9.188;2022-09-09T06:23:48;17.20;99.90
9209;DHT22;4639;48.862;9.188;2022-09-09T06:26:17;17.20;99.90
9209;DHT22;4639;48.862;9.188;2022-09-09T06:28:43;17.30;99.90
9209;DHT22;4639;48.862;9.188;2022-09-09T06:31:11;17.30;99.90
9209;DHT22;4639;48.862;9.188;2022-09-09T06:33:39;17.30;99.90
9209;DHT22;4639;48.862;9.188;2022-09-09T06:36:07;17.20;99.90
9209;DHT22;4639;48.862;9.188;2022-09-09T06:38:36;17.20;99.90
9209;DHT22;4639;48.862;9.188;2022-09-09T06:41:01;17.20;99.90
9209;DHT22;4639;48.862;9.188;2022-09-09T06:43:27;17.20;99.90
9209;DHT22;4639;48.862;9.188;2022-09-09T06:45:58;17.20;99.90
9209;DHT22;4639;48.862;9.188;2022-09-09T06:48:24;17.30;99.90
9209;DHT22;4639;48.862;9.188;2022-09-09T06:51:17;17.40;99.90
9209;DHT22;4639;48.862;9.188;2022-09-09T06:53:44;17.40;99.90
9209;DHT22;4639;48.862;9.188;2022-09-09T06:58:40;17.50;99.90
9209;DHT22;4639;48.862;9.188;2022-09-09T07:01:14;17.70;99.90
9209;DHT22;4639;48.862;9.188;2022-09-09T07:03:41;17.60;99.90
9209;DHT22;4639;48.862;9.188;2022-09-09T07:06:15;17.70;99.90
9209;DHT22;4639;48.862;9.188;2022-09-09T07:08:42;17.70;99.90
9209;DHT22;4639;48.862;9.188;2022-09-09T07:11:08;17.80;99.90
9209;DHT22;4639;48.862;9.188;2022-09-09T07:13:34;17.90;99.90
9209;DHT22;4639;48.862;9.188;2022-09-09T07:16:08;18.00;99.90
9209;DHT22;4639;48.862;9.188;2022-09-09T07:18:34;18.00;99.90
9209;DHT22;4639;48.862;9.188;2022-09-09T07:21:01;18.00;99.90
9209;DHT22;4639;48.862;9.188;2022-09-09T07:23:27;18.10;99.90
9209;DHT22;4639;48.862;9.188;2022-09-09T07:25:53;18.20;99.90
9209;DHT22;4639;48.862;9.188;2022-09-09T07:28:20;18.20;99.90
9209;DHT22;4639;48.862;9.188;2022-09-09T07:31:02;18.20;99.90
9209;DHT22;4639;48.862;9.188;2022-09-09T07:33:29;18.50;99.90
9209;DHT22;4639;48.862;9.188;2022-09-09T07:36:05;18.40;99.90
9209;DHT22;4639;48.862;9.188;2022-09-09T07:38:33;18.50;99.90
9209;DHT22;4639;48.862;9.188;2022-09-09T07:41:04;18.50;99.90
9209;DHT22;4639;48.862;9.188;2022-09-09T07:43:31;18.70;99.90
9209;DHT22;4639;48.862;9.188;2022-09-09T07:46:00;18.70;99.90
9209;DHT22;4639;48.862;9.188;2022-09-09T07:48:29;18.70;99.90
9209;DHT22;4639;48.862;9.188;2022-09-09T07:51:14;18.80;99.90
9209;DHT22;4639;48.862;9.188;2022-09-09T07:53:43;19.00;99.90
9209;DHT22;4639;48.862;9.188;2022-09-09T07:56:12;19.00;99.90
9209;DHT22;4639;48.862;9.188;2022-09-09T07:58:39;18.90;99.90
9209;DHT22;4639;48.862;9.188;2022-09-09T08:01:18;19.00;99.90
9209;DHT22;4639;48.862;9.188;2022-09-09T08:03:52;19.00;99.90
9209;DHT22;4639;48.862;9.188;2022-09-09T08:06:18;19.00;99.90
9209;DHT22;4639;48.862;9.188;2022-09-09T08:08:43;19.10;99.90
9209;DHT22;4639;48.862;9.188;2022-09-09T08:11:12;19.40;99.90
9209;DHT22;4639;48.862;9.188;2022-09-09T08:13:41;19.60;99.90
9209;DHT22;4639;48.862;9.188;2022-09-09T08:16:15;19.90;99.90
9209;DHT22;4639;48.862;9.188;2022-09-09T08:18:41;19.90;99.90
9209;DHT22;4639;48.862;9.188;2022-09-09T08:21:10;20.00;99.90
9209;DHT22;4639;48.862;9.188;2022-09-09T08:23:40;20.20;99.90
9209;DHT22;4639;48.862;9.188;2022-09-09T08:26:28;20.20;99.90
9209;DHT22;4639;48.862;9.188;2022-09-09T08:28:55;20.20;99.90
9209;DHT22;4639;48.862;9.188;2022-09-09T08:31:28;20.10;99.90
9209;DHT22;4639;48.862;9.188;2022-09-09T08:33:54;20.20;99.90
9209;DHT22;4639;48.862;9.188;2022-09-09T08:36:22;20.40;99.90
9209;DHT22;4639;48.862;9.188;2022-09-09T08:38:49;20.50;99.90
9209;DHT22;4639;48.862;9.188;2022-09-09T08:43:58;20.00;99.90
9209;DHT22;4639;48.862;9.188;2022-09-09T08:52:25;20.20;99.90
9209;DHT22;4639;48.862;9.188;2022-09-09T08:54:56;20.80;99.90
9209;DHT22;4639;48.862;9.188;2022-09-09T08:57:28;20.90;99.90
9209;DHT22;4639;48.862;9.188;2022-09-09T08:59:55;21.30;99.90
9209;DHT22;4639;48.862;9.188;2022-09-09T09:05:19;21.90;99.90
9209;DHT22;4639;48.862;9.188;2022-09-09T09:10:46;22.10;99.90
9209;DHT22;4639;48.862;9.188;2022-09-09T09:13:20;22.10;99.90
9209;DHT22;4639;48.862;9.188;2022-09-09T09:15:54;22.30;99.90
9209;DHT22;4639;48.862;9.188;2022-09-09T09:18:21;22.40;99.90
9209;DHT22;4639;48.862;9.188;2022-09-09T09:21:03;22.40;99.90
9209;DHT22;4639;48.862;9.188;2022-09-09T09:23:42;22.30;99.90
9209;DHT22;4639;48.862;9.188;2022-09-09T09:26:10;22.00;99.90
9209;DHT22;4639;48.862;9.188;2022-09-09T09:28:42;21.80;99.90
9209;DHT22;4639;48.862;9.188;2022-09-09T09:31:12;21.50;99.90
9209;DHT22;4639;48.862;9.188;2022-09-09T09:36:15;21.30;99.90
9209;DHT22;4639;48.862;9.188;2022-09-09T09:38:56;21.10;99.90
9209;DHT22;4639;48.862;9.188;2022-09-09T09:41:39;21.10;99.90
9209;DHT22;4639;48.862;9.188;2022-09-09T09:44:25;21.00;99.90
9209;DHT22;4639;48.862;9.188;2022-09-09T09:46:52;20.80;99.90
9209;DHT22;4639;48.862;9.188;2022-09-09T09:49:17;20.90;99.90
9209;DHT22;4639;48.862;9.188;2022-09-09T09:51:43;21.20;99.90
9209;DHT22;4639;48.862;9.188;2022-09-09T09:56:39;21.90;99.90
9209;DHT22;4639;48.862;9.188;2022-09-09T09:59:05;22.10;99.90
9209;DHT22;4639;48.862;9.188;2022-09-09T10:01:43;22.30;99.90
9209;DHT22;4639;48.862;9.188;2022-09-09T10:04:18;22.60;99.90
9209;DHT22;4639;48.862;9.188;2022-09-09T10:06:45;22.80;99.90
9209;DHT22;4639;48.862;9.188;2022-09-09T10:09:40;23.00;99.90
9209;DHT22;4639;48.862;9.188;2022-09-09T10:15:00;23.30;99.90
9209;DHT22;4639;48.862;9.188;2022-09-09T10:22:36;23.90;99.90
9209;DHT22;4639;48.862;9.188;2022-09-09T10:25:41;23.60;99.90
9209;DHT22;4639;48.862;9.188;2022-09-09T10:36:24;23.70;99.90
9209;DHT22;4639;48.862;9.188;2022-09-09T10:39:03;23.80;99.90
9209;DHT22;4639;48.862;9.188;2022-09-09T10:52:28;24.20;99.90
9209;DHT22;4639;48.862;9.188;2022-09-09T10:57:47;23.80;99.90
9209;DHT22;4639;48.862;9.188;2022-09-09T11:00:16;23.30;99.90
9209;DHT22;4639;48.862;9.188;2022-09-09T11:02:42;23.40;99.90
9209;DHT22;4639;48.862;9.188;2022-09-09T11:05:41;23.30;99.90
9209;DHT22;4639;48.862;9.188;2022-09-09T11:08:08;23.20;99.90
9209;DHT22;4639;48.862;9.188;2022-09-09T11:10:44;23.00;99.90
9209;DHT22;4639;48.862;9.188;2022-09-09T11:13:19;22.50;99.90
9209;DHT22;4639;48.862;9.188;2022-09-09T11:15:53;22.30;99.90
9209;DHT22;4639;48.862;9.188;2022-09-09T11:18:21;22.00;99.90
9209;DHT22;4639;48.862;9.188;2022-09-09T11:20:51;21.60;99.90
9209;DHT22;4639;48.862;9.188;2022-09-09T11:23:40;19.60;99.90
9209;DHT22;4639;48.862;9.188;2022-09-09T11:26:12;17.80;99.90
9209;DHT22;4639;48.862;9.188;2022-09-09T11:28:56;16.90;99.90
9209;DHT22;4639;48.862;9.188;2022-09-09T11:31:49;16.40;99.90
9209;DHT22;4639;48.862;9.188;2022-09-09T11:34:32;16.40;99.90
9209;DHT22;4639;48.862;9.188;2022-09-09T11:40:26;16.80;99.90
9209;DHT22;4639;48.862;9.188;2022-09-09T11:43:15;17.10;99.90
9209;DHT22;4639;48.862;9.188;2022-09-09T11:45:51;17.30;99.90
9209;DHT22;4639;48.862;9.188;2022-09-09T11:49:05;17.60;99.90
9209;DHT22;4639;48.862;9.188;2022-09-09T11:51:32;17.70;99.90
9209;DHT22;4639;48.862;9.188;2022-09-09T11:54:28;17.80;99.90
9209;DHT22;4639;48.862;9.188;2022-09-09T11:56:54;17.90;99.90
9209;DHT22;4639;48.862;9.188;2022-09-09T12:07:39;18.40;99.90
9209;DHT22;4639;48.862;9.188;2022-09-09T12:12:48;18.60;99.90
9209;DHT22;4639;48.862;9.188;2022-09-09T12:15:21;18.70;99.90
9209;DHT22;4639;48.862;9.188;2022-09-09T12:17:49;18.80;99.90
9209;DHT22;4639;48.862;9.188;2022-09-09T12:20:22;19.20;99.90
9209;DHT22;4639;48.862;9.188;2022-09-09T12:23:21;19.50;99.90
9209;DHT22;4639;48.862;9.188;2022-09-09T12:26:07;19.90;99.90
9209;DHT22;4639;48.862;9.188;2022-09-09T12:32:02;20.90;99.90
9209;DHT22;4639;48.862;9.188;2022-09-09T12:34:52;21.40;99.90
9209;DHT22;4639;48.862;9.188;2022-09-09T12:40:23;22.40;99.90
9209;DHT22;4639;48.862;9.188;2022-09-09T12:42:49;22.40;99.90
9209;DHT22;4639;48.862;9.188;2022-09-09T12:45:20;22.80;99.90
9209;DHT22;4639;48.862;9.188;2022-09-09T12:47:47;22.80;99.90
9209;DHT22;4639;48.862;9.188;2022-09-09T12:50:26;22.70;99.90
9209;DHT22;4639;48.862;9.188;2022-09-09T12:53:08;22.70;99.90
9209;DHT22;4639;48.862;9.188;2022-09-09T12:55:37;22.60;99.90
9209;DHT22;4639;48.862;9.188;2022-09-09T12:58:05;21.70;99.90
9209;DHT22;4639;48.862;9.188;2022-09-09T13:00:33;21.30;99.90
9209;DHT22;4639;48.862;9.188;2022-09-09T13:03:01;21.60;99.90
9209;DHT22;4639;48.862;9.188;2022-09-09T13:05:38;22.10;99.90
9209;DHT22;4639;48.862;9.188;2022-09-09T13:08:12;22.60;99.90
9209;DHT22;4639;48.862;9.188;2022-09-09T13:10:47;22.60;99.90
9209;DHT22;4639;48.862;9.188;2022-09-09T13:13:22;22.60;99.90
9209;DHT22;4639;48.862;9.188;2022-09-09T13:15:53;22.90;99.90
9209;DHT22;4639;48.862;9.188;2022-09-09T13:18:27;23.20;99.90
9209;DHT22;4639;48.862;9.188;2022-09-09T13:20:53;23.00;99.90
9209;DHT22;4639;48.862;9.188;2022-09-09T13:23:26;22.90;99.90
9209;DHT22;4639;48.862;9.188;2022-09-09T13:26:04;23.20;99.90
9209;DHT22;4639;48.862;9.188;2022-09-09T13:28:31;23.50;99.90
9209;DHT22;4639;48.862;9.188;2022-09-09T13:31:20;23.40;99.90
9209;DHT22;4639;48.862;9.188;2022-09-09T13:33:46;23.70;99.90
9209;DHT22;4639;48.862;9.188;2022-09-09T13:36:13;23.70;99.90
9209;DHT22;4639;48.862;9.188;2022-09-09T13:41:21;23.70;99.90
9209;DHT22;4639;48.862;9.188;2022-09-09T13:43:49;23.30;99.90
9209;DHT22;4639;48.862;9.188;2022-09-09T13:48:56;23.00;99.90
9209;DHT22;4639;48.862;9.188;2022-09-09T13:51:35;22.80;99.90
9209;DHT22;4639;48.862;9.188;2022-09-09T13:54:06;22.80;99.90
9209;DHT22;4639;48.862;9.188;2022-09-09T13:56:33;22.80;99.90
9209;DHT22;4639;48.862;9.188;2022-09-09T13:58:59;22.60;99.90
9209;DHT22;4639;48.862;9.188;2022-09-09T14:01:25;22.60;99.90
9209;DHT22;4639;48.862;9.188;2022-09-09T14:03:53;22.50;99.90
9209;DHT22;4639;48.862;9.188;2022-09-09T14:06:18;22.60;99.90
9209;DHT22;4639;48.862;9.188;2022-09-09T14:08:44;22.90;99.90
9209;DHT22;4639;48.862;9.188;2022-09-09T14:11:12;23.60;99.90
9209;DHT22;4639;48.862;9.188;2022-09-09T14:13:38;23.60;99.90
9209;DHT22;4639;48.862;9.188;2022-09-09T14:16:04;23.60;99.90
9209;DHT22;4639;48.862;9.188;2022-09-09T14:18:30;23.40;99.90
9209;DHT22;4639;48.862;9.188;2022-09-09T14:20:55;23.30;99.90
9209;DHT22;4639;48.862;9.188;2022-09-09T14:23:22;23.30;99.90
9209;DHT22;4639;48.862;9.188;2022-09-09T14:25:50;23.20;99.90
9209;DHT22;4639;48.862;9.188;2022-09-09T14:28:16;23.40;99.90
9209;DHT22;4639;48.862;9.188;2022-09-09T14:30:43;23.60;99.90
9209;DHT22;4639;48.862;9.188;2022-09-09T14:33:13;23.70;99.90
9209;DHT22;4639;48.862;9.188;2022-09-09T14:35:40;23.80;99.90
9209;DHT22;4639;48.862;9.188;2022-09-09T14:38:07;23.80;99.90
9209;DHT22;4639;48.862;9.188;2022-09-09T14:40:34;23.80;99.90
9209;DHT22;4639;48.862;9.188;2022-09-09T14:43:00;23.80;99.90
9209;DHT22;4639;48.862;9.188;2022-09-09T14:45:26;23.70;99.90
9209;DHT22;4639;48.862;9.188;2022-09-09T14:47:52;23.30;99.90
9209;DHT22;4639;48.862;9.188;2022-09-09T14:50:19;23.10;99.90
9209;DHT22;4639;48.862;9.188;2022-09-09T14:52:45;22.90;99.90
9209;DHT22;4639;48.862;9.188;2022-09-09T14:55:11;22.90;99.90
9209;DHT22;4639;48.862;9.188;2022-09-09T14:57:37;23.00;99.90
9209;DHT22;4639;48.862;9.188;2022-09-09T15:00:04;23.20;99.90
9209;DHT22;4639;48.862;9.188;2022-09-09T15:02:30;23.20;99.90
9209;DHT22;4639;48.862;9.188;2022-09-09T15:04:56;23.00;99.90
9209;DHT22;4639;48.862;9.188;2022-09-09T15:07:25;22.90;99.90
9209;DHT22;4639;48.862;9.188;2022-09-09T15:09:51;23.10;99.90
9209;DHT22;4639;48.862;9.188;2022-09-09T15:12:18;23.20;99.90
9209;DHT22;4639;48.862;9.188;2022-09-09T15:14:46;23.10;99.90
9209;DHT22;4639;48.862;9.188;2022-09-09T15:17:12;22.90;99.90
9209;DHT22;4639;48.862;9.188;2022-09-09T15:19:38;22.70;99.90
9209;DHT22;4639;48.862;9.188;2022-09-09T15:22:04;22.50;99.90
9209;DHT22;4639;48.862;9.188;2022-09-09T15:24:33;22.30;99.90
9209;DHT22;4639;48.862;9.188;2022-09-09T15:26:59;22.20;99.90
9209;DHT22;4639;48.862;9.188;2022-09-09T15:29:25;22.20;99.90
9209;DHT22;4639;48.862;9.188;2022-09-09T15:31:51;22.10;99.90
9209;DHT22;4639;48.862;9.188;2022-09-09T15:34:18;22.10;99.90
9209;DHT22;4639;48.862;9.188;2022-09-09T15:36:45;22.00;99.90
9209;DHT22;4639;48.862;9.188;2022-09-09T15:39:15;22.10;99.90
9209;DHT22;4639;48.862;9.188;2022-09-09T15:41:42;22.10;99.90
9209;DHT22;4639;48.862;9.188;2022-09-09T15:44:09;22.00;99.90
9209;DHT22;4639;48.862;9.188;2022-09-09T15:46:42;22.10;99.90
9209;DHT22;4639;48.862;9.188;2022-09-09T15:49:25;22.00;99.90
9209;DHT22;4639;48.862;9.188;2022-09-09T15:51:56;22.00;99.90
9209;DHT22;4639;48.862;9.188;2022-09-09T15:54:24;21.80;99.90
9209;DHT22;4639;48.862;9.188;2022-09-09T15:56:55;21.80;99.90
9209;DHT22;4639;48.862;9.188;2022-09-09T15:59:26;21.90;99.90
9209;DHT22;4639;48.862;9.188;2022-09-09T16:01:53;21.80;99.90
9209;DHT22;4639;48.862;9.188;2022-09-09T16:04:20;21.60;99.90
9209;DHT22;4639;48.862;9.188;2022-09-09T16:07:07;21.60;99.90
9209;DHT22;4639;48.862;9.188;2022-09-09T16:09:33;21.60;99.90
9209;DHT22;4639;48.862;9.188;2022-09-09T16:12:01;21.60;99.90
9209;DHT22;4639;48.862;9.188;2022-09-09T16:14:28;21.60;99.90
9209;DHT22;4639;48.862;9.188;2022-09-09T16:16:54;21.50;99.90
9209;DHT22;4639;48.862;9.188;2022-09-09T16:19:19;21.50;99.90
9209;DHT22;4639;48.862;9.188;2022-09-09T16:21:47;21.50;99.90
9209;DHT22;4639;48.862;9.188;2022-09-09T16:24:15;21.50;99.90
9209;DHT22;4639;48.862;9.188;2022-09-09T16:26:47;21.20;99.90
9209;DHT22;4639;48.862;9.188;2022-09-09T16:29:14;20.50;99.90
9209;DHT22;4639;48.862;9.188;2022-09-09T16:31:42;20.00;99.90
9209;DHT22;4639;48.862;9.188;2022-09-09T16:34:08;19.70;99.90
9209;DHT22;4639;48.862;9.188;2022-09-09T16:36:36;19.30;99.90
9209;DHT22;4639;48.862;9.188;2022-09-09T16:39:04;18.80;99.90
9209;DHT22;4639;48.862;9.188;2022-09-09T16:41:31;18.50;99.90
9209;DHT22;4639;48.862;9.188;2022-09-09T16:44:02;18.20;99.90
9209;DHT22;4639;48.862;9.188;2022-09-09T16:46:30;18.00;99.90
9209;DHT22;4639;48.862;9.188;2022-09-09T16:48:57;17.70;99.90
9209;DHT22;4639;48.862;9.188;2022-09-09T16:51:37;17.80;99.90
9209;DHT22;4639;48.862;9.188;2022-09-09T16:54:05;17.90;99.90
9209;DHT22;4639;48.862;9.188;2022-09-09T16:56:37;17.90;99.90
9209;DHT22;4639;48.862;9.188;2022-09-09T16:59:06;18.00;99.90
9209;DHT22;4639;48.862;9.188;2022-09-09T17:01:34;18.00;99.90
9209;DHT22;4639;48.862;9.188;2022-09-09T17:04:04;18.00;99.90
9209;DHT22;4639;48.862;9.188;2022-09-09T17:06:31;18.00;99.90
9209;DHT22;4639;48.862;9.188;2022-09-09T17:08:59;18.10;99.90
9209;DHT22;4639;48.862;9.188;2022-09-09T17:11:27;18.20;99.90
9209;DHT22;4639;48.862;9.188;2022-09-09T17:13:54;18.20;99.90
9209;DHT22;4639;48.862;9.188;2022-09-09T17:16:21;18.10;99.90
9209;DHT22;4639;48.862;9.188;2022-09-09T17:18:48;18.10;99.90
9209;DHT22;4639;48.862;9.188;2022-09-09T17:21:15;18.00;99.90
9209;DHT22;4639;48.862;9.188;2022-09-09T17:23:42;18.10;99.90
9209;DHT22;4639;48.862;9.188;2022-09-09T17:26:10;18.00;99.90
9209;DHT22;4639;48.862;9.188;2022-09-09T17:28:38;17.90;99.90
9209;DHT22;4639;48.862;9.188;2022-09-09T17:31:05;17.80;99.90
9209;DHT22;4639;48.862;9.188;2022-09-09T17:33:37;17.80;99.90
9209;DHT22;4639;48.862;9.188;2022-09-09T17:38:40;17.70;99.90
9209;DHT22;4639;48.862;9.188;2022-09-09T17:41:20;17.90;99.90
9209;DHT22;4639;48.862;9.188;2022-09-09T17:43:47;18.00;99.90
9209;DHT22;4639;48.862;9.188;2022-09-09T17:46:20;17.90;99.90
9209;DHT22;4639;48.862;9.188;2022-09-09T17:48:47;17.80;99.90
9209;DHT22;4639;48.862;9.188;2022-09-09T17:51:16;17.80;99.90
9209;DHT22;4639;48.862;9.188;2022-09-09T17:53:47;17.90;99.90
9209;DHT22;4639;48.862;9.188;2022-09-09T17:56:14;17.90;99.90
9209;DHT22;4639;48.862;9.188;2022-09-09T17:58:41;17.90;99.90
9209;DHT22;4639;48.862;9.188;2022-09-09T18:01:10;18.10;99.90
9209;DHT22;4639;48.862;9.188;2022-09-09T18:03:43;17.90;99.90
9209;DHT22;4639;48.862;9.188;2022-09-09T18:06:16;17.90;99.90
9209;DHT22;4639;48.862;9.188;2022-09-09T18:08:57;17.90;99.90
9209;DHT22;4639;48.862;9.188;2022-09-09T18:11:46;17.90;99.90
9209;DHT22;4639;48.862;9.188;2022-09-09T18:14:16;18.00;99.90
9209;DHT22;4639;48.862;9.188;2022-09-09T18:16:49;18.00;99.90